Tiempo atmosférico en la estación meteorológica de Vilassar De Dalt, Barcelona (60 m.)



Fecha
DESCASC
Temp. máxima en grados centígrados (hora)
DESCASC
Temp. mínima en grados centígrados (hora)
DESCASC
Temp. media en grados centígrados
DESCASC
Racha de viento máxima en m/sg (hora)
DESCASC
Velocidad máxima media en intervalos de 10 minutos(hora)
DESCASC
Precipitaciones diarias en mm
DESCASC
Precipitaciones de 00:00 a 06:00 en mm
DESCASC
Precipitaciones de 06:00 a 12:00 en mm
DESCASC
Precipitaciones de 12:00 a 18:00 en mm
DESCASC
Precipitaciones de 18:00 a 24:00 en mm
DESCASC
22-01-2020 14.2 (12:20) 9.5 (05:10) 11.8 13.06 (11:40) 6.94 (19:20) 22.6 19.2 1.8 0.2 1.4
21-01-2020 11.9 (15:30) 7.3 (00:10) 9.6 27.22 (00:30) 11.67 (00:30) 97.4 27.6 20.4 4.6 44.8
20-01-2020 10.1 (03:00) 6.6 (17:40) 8.4 28.33 (13:40) 12.22 (10:10) 9.4 0 0 0.2 9.2
19-01-2020 11.5 (13:10) 8.3 (00:00) 9.9 22.22 (17:10) 10.83 (17:20) 0.8 0.6 0.2 0 0
18-01-2020 15 (13:00) 9.3 (00:00) 12.2 5 (17:40) 2.22 (02:10) 0 0 0 0 0
17-01-2020 18.6 (14:20) 9.4 (00:00) 14 12.5 (16:10) 6.67 (14:00) 0 0 0 0 0
16-01-2020 15.6 (11:40) 7.7 (00:00) 11.7 5.83 (14:10) 3.33 (16:00) 0 0 0 0 0
15-01-2020 15.9 (13:00) 9 (00:00) 12.4 7.5 (15:40) 3.89 (16:30) 0 0 0 0 0
14-01-2020 16.5 (12:50) 5.6 (00:00) 11 8.61 (16:30) 4.44 (16:40) 0 0 0 0 0
13-01-2020 14.4 (12:40) 4 (00:00) 9.2 8.33 (23:50) 3.61 (23:50) 0 0 0 0 0
12-01-2020 14.4 (13:50) 4.3 (00:00) 9.3 3.89 (11:50) 2.22 (06:50) 0 0 0 0 0
11-01-2020 13.4 (13:50) 5.9 (00:00) 9.6 5.56 (08:20) 2.5 (05:00) 0 0 0 0 0
10-01-2020 13.1 (16:00) 7.8 (00:00) 10.5 9.44 (10:30) 4.44 (10:30) 11.2 0 11 0.2 0
09-01-2020 15.1 (12:20) 7.7 (00:00) 11.4 7.5 (15:20) 4.17 (15:10) 0 0 0 0 0
08-01-2020 17.9 (12:50) 8.1 (00:00) 13 3.89 (13:10) 1.94 (14:40) 0 0 0 0 0
07-01-2020 17.2 (13:50) 7.2 (00:00) 12.2 4.72 (14:10) 2.78 (13:10) 0 0 0 0 0
06-01-2020 15.7 (12:30) 6.7 (00:00) 11.2 6.11 (01:00) 3.33 (01:10) 0 0 0 0 0
05-01-2020 17 (12:40) 6.9 (00:00) 12 6.67 (15:20) 3.89 (15:20) 0 0 0 0 0
04-01-2020 16.8 (12:20) 6.6 (00:00) 11.7 7.22 (21:50) 3.89 (21:50) 0 0 0 0 0
03-01-2020 14.7 (13:10) 8.2 (00:00) 11.4 8.61 (05:30) 4.72 (05:30) 0 0 0 0 0
02-01-2020 13.9 (15:50) 6 (00:00) 9.9 8.61 (13:50) 4.17 (12:50) 0 0 0 0 0
01-01-2020 14 (12:40) 5.5 (00:00) 9.8 4.17 (12:20) 2.5 (12:20) 0 0 0 0 0
31-12-2019 14.6 (12:50) 6.9 (00:00) 10.8 7.78 (15:00) 4.17 (13:40) 0 0 0 0 0
30-12-2019 15.5 (13:50) 7.9 (00:00) 11.7 6.39 (15:20) 3.61 (15:00) 0 0 0 0 0
29-12-2019 15.6 (12:40) 9.6 (00:00) 12.6 6.11 (12:00) 2.22 (11:20) 0 0 0 0 0
28-12-2019 15 (12:10) 8 (00:00) 11.5 5.28 (13:30) 3.06 (13:10) 0 0 0 0 0
27-12-2019 17 (12:30) 8.3 (00:00) 12.7 4.72 (13:30) 2.22 (15:10) 0 0 0 0 0
26-12-2019 17 (15:00) 9.8 (00:00) 13.4 4.72 (12:10) 2.5 (12:20) 0 0 0 0 0

Gráficas

Temp. máximas Temp. mínimas Temp. medias Precipitaciones Rachas de viento máximas Velocidades máximas media en intervalos de 10 minutos

Datos horarios

Fecha y hora oficial Temperatura (ºC) Velocidad del viento (km/h) Dirección del viento Racha (km/h) Dirección de racha Precipitación (mm) Presión (hPa) Tendencia (hPa) Humedad (%)
2020-01-24 23:00:00 9.9 4 Norte 9 Norte 0 -- -- 86
2020-01-24 22:00:00 9.9 3 Nordeste 7 Norte 0 -- -- 81
2020-01-24 21:00:00 10.1 2 Norte 5 Norte 0 -- -- 84
2020-01-24 20:00:00 10.8 3 Norte 5 Norte 0 -- -- 83
2020-01-24 19:00:00 11.1 3 Noroeste 6 Noroeste 0 -- -- 82
2020-01-24 18:00:00 12.6 2 Norte 10 Sudoeste 0 -- -- 80
2020-01-24 17:00:00 14.6 6 Sudoeste 15 Sudoeste 0 -- -- 74
2020-01-24 16:00:00 15.1 9 Sudoeste 18 Sudoeste 0 -- -- 73
2020-01-24 15:00:00 15.4 9 Sudoeste 18 Sudoeste 0 -- -- 67
2020-01-24 14:00:00 15.5 9 Sudoeste 17 Sudoeste 0 -- -- 64
2020-01-24 13:00:00 17.7 3 Sur 10 Sudoeste 0 -- -- 55
2020-01-24 12:00:00 16.2 3 Sur 8 Sur 0 -- -- 62
2020-01-24 11:00:00 12.6 3 Sudoeste 6 Sudoeste 0 -- -- 74
2020-01-24 10:00:00 11 4 Sudoeste 6 Oeste 0 -- -- 82
2020-01-24 09:00:00 9.2 3 Noroeste 6 Noroeste 0 -- -- 85
2020-01-24 08:00:00 7.8 4 Norte 6 Nordeste 0 -- -- 88
2020-01-24 07:00:00 7.7 0 Calma 4 Norte 0 -- -- 90
2020-01-24 06:00:00 7.2 0 Calma 6 Noroeste 0 -- -- 90
2020-01-24 05:00:00 7.4 3 Noroeste 5 Noroeste 0 -- -- 91
2020-01-24 04:00:00 7.7 3 Noroeste 8 Noroeste 0 -- -- 90
2020-01-24 03:00:00 7.7 0 Calma 8 Noroeste 0 -- -- 90
2020-01-24 02:00:00 7.7 3 Norte 6 Norte 0 -- -- 90
2020-01-24 01:00:00 8.3 2 Noroeste 4 Norte 0 -- -- 89
2020-01-24 00:00:00 9 3 Norte 6 Norte 0 -- -- 85
2020-01-23 23:00:00 8.7 0 Calma 5 Noroeste 0 -- -- 87
2020-01-23 22:00:00 9 2 Norte 6 Noroeste 0 -- -- 86
2020-01-23 21:00:00 9.5 4 Noroeste 6 Noroeste 0 -- -- 85
2020-01-23 20:00:00 9.9 5 Noroeste 8 Norte 0 -- -- 83
2020-01-23 19:00:00 10.7 3 Norte 9 Oeste 0 -- -- 80
2020-01-23 18:00:00 11.2 3 Noroeste 10 Oeste 0 -- -- 79
2020-01-23 17:00:00 13.5 5 Sudoeste 15 Sur 0 -- -- 72
2020-01-23 16:00:00 14.4 6 Sudoeste 15 Sur 0 -- -- 76
2020-01-23 15:00:00 15.9 5 Sur 15 Sur 0 -- -- 72
2020-01-23 14:00:00 15.1 8 Sudoeste 16 Sudoeste 0 -- -- 72
2020-01-23 13:00:00 17 3 Sur 11 Sur 0 -- -- 67
2020-01-23 12:00:00 15.2 5 Sur 9 Sur 0 -- -- 73
2020-01-23 11:00:00 14.2 5 Sudoeste 10 Sudoeste 0 -- -- 83
2020-01-23 10:00:00 13 2 Sur 6 Sur 0 -- -- 92
2020-01-23 09:00:00 11.7 2 Noroeste 6 Noroeste 0 -- -- 95
2020-01-23 08:00:00 11.1 3 Noroeste 8 Este 3 -- -- 95
2020-01-23 07:00:00 11.4 4 Sudoeste 40 Sudeste 1 -- -- 95
2020-01-23 06:00:00 13.7 21 Este 48 Este 0 -- -- 96
2020-01-23 05:00:00 13.4 23 Este 47 Este 0.2 -- -- 96
2020-01-23 04:00:00 13.4 27 Este 48 Este 1.4 -- -- 96
2020-01-23 03:00:00 13.3 23 Este 49 Este 0.8 -- -- 95
2020-01-23 02:00:00 13.2 21 Este 41 Nordeste 1.2 -- -- 95
2020-01-23 01:00:00 13.4 16 Nordeste 33 Nordeste 0.6 -- -- 94
2020-01-23 00:00:00 13.5 19 Este 35 Este 1 -- -- 94
2020-01-22 23:00:00 13.7 18 Este 37 Nordeste 0.4 -- -- 93
2020-01-22 22:00:00 13.9 18 Este 37 Este 0 -- -- 92
2020-01-22 21:00:00 14 19 Este 40 Este 0 -- -- 91
2020-01-22 20:00:00 14 21 Este 42 Nordeste 0 -- -- 91
2020-01-22 19:00:00 13.9 23 Este 47 Este 0 -- -- 92
2020-01-22 18:00:00 13.9 22 Este 42 Este 0 -- -- 92
2020-01-22 17:00:00 14 23 Este 40 Este 0 -- -- 92
2020-01-22 16:00:00 13.8 17 Este 41 Nordeste 0 -- -- 93
2020-01-22 15:00:00 13.9 19 Este 37 Este 0.2 -- -- 93
2020-01-22 14:00:00 14 19 Este 35 Este 0 -- -- 92
2020-01-22 13:00:00 14 17 Este 34 Este 0 -- -- 93
2020-01-22 12:00:00 13.9 17 Este 47 Este 0 -- -- 93
2020-01-22 11:00:00 14 22 Este 39 Este 0 -- -- 92
2020-01-22 10:00:00 13.8 15 Este 30 Este 0.2 -- -- 93
2020-01-22 09:00:00 13.2 9 Nordeste 20 Nordeste 0 -- -- 93
2020-01-22 08:00:00 11.9 6 Norte 20 Norte 0 -- -- 90
2020-01-22 07:00:00 10.3 12 Norte 29 Norte 1.6 -- -- 90
2020-01-22 06:00:00 9.9 12 Norte 33 Norte 2.6 -- -- 92
2020-01-22 05:00:00 9.7 16 Norte 31 Norte 4.2 -- -- 93
2020-01-22 04:00:00 10.5 10 Norte 27 Este 6.8 -- -- 93
2020-01-22 03:00:00 11.3 7 Norte 28 Nordeste 1.8 -- -- 91
2020-01-22 02:00:00 11.4 12 Nordeste 28 Nordeste 1 -- -- 89
2020-01-22 01:00:00 11 8 Nordeste 37 Este 2.8 -- -- 94
2020-01-22 00:00:00 11.8 36 Este 76 Este 24.4 -- -- 92
2020-01-21 23:00:00 11.3 22 Este 67 Este 11 -- -- 93
2020-01-21 22:00:00 11.2 31 Nordeste 69 Este 4.2 -- -- 91
2020-01-21 21:00:00 11.1 27 Nordeste 59 Este 2 -- -- 89
2020-01-21 20:00:00 10.9 25 Nordeste 69 Nordeste 2.4 -- -- 89
2020-01-21 19:00:00 11.3 30 Nordeste 63 Nordeste 0.8 -- -- 87
2020-01-21 18:00:00 11.3 33 Nordeste 65 Nordeste 0.8 -- -- 88
2020-01-21 17:00:00 11.1 31 Nordeste 66 Este 1.4 -- -- 89
2020-01-21 16:00:00 11.6 32 Nordeste 72 Nordeste 0 -- -- 85
2020-01-21 15:00:00 11.6 31 Nordeste 60 Este 0.2 -- -- 87
2020-01-21 14:00:00 11.3 33 Nordeste 68 Este 0.8 -- -- 90
2020-01-21 13:00:00 11.1 33 Nordeste 73 Nordeste 1.4 -- -- 91
2020-01-21 12:00:00 11 31 Este 64 Nordeste 3.4 -- -- 92
2020-01-21 11:00:00 10.7 31 Nordeste 58 Nordeste 3.2 -- -- 91
2020-01-21 10:00:00 10.6 33 Nordeste 61 Este 3 -- -- 91
2020-01-21 09:00:00 9.9 27 Nordeste 73 Nordeste 3.4 -- -- 91
2020-01-21 08:00:00 9.2 27 Nordeste 57 Nordeste 4.4 -- -- 89
2020-01-21 07:00:00 9.4 27 Nordeste 60 Nordeste 3 -- -- 88
2020-01-21 06:00:00 8.5 24 Nordeste 63 Nordeste 3.2 -- -- 87
2020-01-21 05:00:00 8.8 28 Nordeste 59 Nordeste 3.6 -- -- 87
2020-01-21 04:00:00 8.2 28 Nordeste 75 Nordeste 5.4 -- -- 86
2020-01-21 03:00:00 7.8 38 Nordeste 81 Nordeste 5.8 -- -- 86
2020-01-21 02:00:00 7.6 37 Nordeste 72 Nordeste 4.4 -- -- 86
2020-01-21 01:00:00 7.5 39 Nordeste 98 Nordeste 5.2 -- -- 85
2020-01-21 00:00:00 7.5 37 Nordeste 75 Nordeste 1.2 -- -- 81
2020-01-20 23:00:00 8 34 Nordeste 72 Norte 1.6 -- -- 81
2020-01-20 22:00:00 7.6 30 Nordeste 75 Norte 2 -- -- 84
2020-01-20 21:00:00 7.5 33 Nordeste 77 Nordeste 2.4 -- -- 83
2020-01-20 20:00:00 6.8 32 Nordeste 77 Norte 1.2 -- -- 81
2020-01-20 19:00:00 6.9 32 Nordeste 73 Nordeste 0.8 -- -- 80
2020-01-20 18:00:00 6.7 36 Nordeste 70 Norte 0.2 -- -- 77
2020-01-20 17:00:00 7.1 35 Nordeste 73 Nordeste 0 -- -- 75
2020-01-20 16:00:00 7.5 34 Nordeste 82 Nordeste 0 -- -- 71
2020-01-20 15:00:00 8.8 39 Nordeste 84 Norte 0 -- -- 64
2020-01-20 14:00:00 8.4 38 Nordeste 102 Nordeste 0 -- -- 61
2020-01-20 13:00:00 8.4 40 Nordeste 81 Nordeste 0 -- -- 61
2020-01-20 12:00:00 8.8 40 Nordeste 96 Nordeste 0 -- -- 59
2020-01-20 11:00:00 8.8 35 Nordeste 88 Norte 0 -- -- 56
2020-01-20 10:00:00 9.4 42 Nordeste 80 Nordeste 0 -- -- 51
2020-01-20 09:00:00 9.4 36 Nordeste 80 Nordeste 0 -- -- 49
2020-01-20 08:00:00 9.5 40 Nordeste 98 Nordeste 0 -- -- 46
2020-01-20 07:00:00 9.3 32 Nordeste 74 Norte 0 -- -- 44
2020-01-20 06:00:00 9.4 39 Norte 81 Norte 0 -- -- 39
2020-01-20 05:00:00 9.5 35 Nordeste 78 Nordeste 0 -- -- 35
2020-01-20 04:00:00 9.9 33 Nordeste 79 Nordeste 0 -- -- 36
2020-01-20 03:00:00 10.1 33 Nordeste 69 Norte 0 -- -- 32
2020-01-20 02:00:00 10 30 Nordeste 74 Norte 0 -- -- 32
2020-01-20 01:00:00 9.7 27 Nordeste 68 Nordeste 0 -- -- 32
2020-01-20 00:00:00 9.9 32 Nordeste 72 Nordeste 0 -- -- 30
2020-01-19 23:00:00 10.1 25 Nordeste 63 Norte 0 -- -- 30
2020-01-19 22:00:00 10.3 33 Nordeste 66 Norte 0 -- -- 29
2020-01-19 21:00:00 10.3 33 Nordeste 71 Nordeste 0 -- -- 31
2020-01-19 20:00:00 10.4 30 Nordeste 70 Norte 0 -- -- 31
2020-01-19 19:00:00 10.6 29 Nordeste 67 Nordeste 0 -- -- 29
2020-01-19 18:00:00 10.6 34 Nordeste 80 Norte 0 -- -- 29
2020-01-19 17:00:00 10.7 32 Nordeste 72 Nordeste 0 -- -- 29
2020-01-19 16:00:00 11.3 26 Nordeste 61 Norte 0 -- -- 30
2020-01-19 15:00:00 11.5 32 Nordeste 66 Norte 0 -- -- 31
2020-01-19 14:00:00 11.3 32 Nordeste 66 Norte 0 -- -- 37
2020-01-19 13:00:00 11.4 27 Nordeste 55 Nordeste 0 -- -- 37
2020-01-19 12:00:00 10.8 20 Nordeste 45 Nordeste 0 -- -- 39
2020-01-19 11:00:00 10.3 19 Nordeste 53 Nordeste 0 -- -- 42
2020-01-19 10:00:00 9.1 29 Norte 62 Norte 0 -- -- 51
2020-01-19 09:00:00 8.5 27 Norte 51 Nordeste 0 -- -- 61
2020-01-19 08:00:00 8.5 15 Nordeste 49 Nordeste 0 -- -- 71
2020-01-19 07:00:00 8.7 22 Nordeste 43 Norte 0.2 -- -- 71
2020-01-19 06:00:00 8.9 15 Nordeste 36 Nordeste 0 -- -- 77
2020-01-19 05:00:00 9 13 Norte 26 Norte 0.6 -- -- 84
2020-01-19 04:00:00 10.6 10 Norte 22 Nordeste 0 -- -- 78
2020-01-19 03:00:00 11 9 Norte 19 Norte 0 -- -- 73
2020-01-19 02:00:00 11.1 5 Norte 13 Norte 0 -- -- 78
2020-01-19 01:00:00 11.1 5 Norte 9 Norte 0 -- -- 78
2020-01-19 00:00:00 10.7 3 Norte 5 Norte 0 -- -- 80
2020-01-18 23:00:00 11.2 3 Noroeste 6 Noroeste 0 -- -- 77
2020-01-18 22:00:00 11.3 3 Noroeste 6 Oeste 0 -- -- 75
2020-01-18 21:00:00 10.5 4 Noroeste 8 Oeste 0 -- -- 77
2020-01-18 20:00:00 9.4 5 Oeste 9 Oeste 0 -- -- 77
2020-01-18 19:00:00 10.3 2 Noroeste 9 Oeste 0 -- -- 75
2020-01-18 18:00:00 11 4 Oeste 18 Sudoeste 0 -- -- 72
2020-01-18 17:00:00 12.8 3 Sudeste 13 Sudoeste 0 -- -- 63
2020-01-18 16:00:00 13.9 5 Sur 13 Sudoeste 0 -- -- 61
2020-01-18 15:00:00 14 5 Sur 12 Sudeste 0 -- -- 67
2020-01-18 14:00:00 14.7 5 Sur 15 Sur 0 -- -- 65
2020-01-18 13:00:00 15 4 Sudeste 14 Este 0 -- -- 62
2020-01-18 12:00:00 13.7 3 Sudeste 11 Sudeste 0 -- -- 65
2020-01-18 11:00:00 12.7 3 Norte 6 Norte 0 -- -- 67
2020-01-18 10:00:00 11.7 3 Noroeste 11 Noroeste 0 -- -- 72
2020-01-18 09:00:00 10.8 5 Norte 12 Norte 0 -- -- 75
2020-01-18 08:00:00 10.8 5 Norte 12 Noroeste 0 -- -- 74
2020-01-18 07:00:00 10.7 4 Norte 9 Norte 0 -- -- 74
2020-01-18 06:00:00 10.5 5 Nordeste 12 Nordeste 0 -- -- 75
2020-01-18 05:00:00 10.7 6 Nordeste 12 Norte 0 -- -- 75
2020-01-18 04:00:00 10.4 4 Norte 15 Este 0 -- -- 79
2020-01-18 03:00:00 11.2 5 Nordeste 15 Norte 0 -- -- 81
2020-01-18 02:00:00 10.9 7 Nordeste 17 Nordeste 0 -- -- 81
2020-01-18 01:00:00 10.1 6 Norte 13 Nordeste 0 -- -- 84
2020-01-18 00:00:00 9.6 5 Norte 6 Norte 0 -- -- 81
2020-01-17 23:00:00 10 3 Noroeste 7 Nordeste 0 -- -- 77
2020-01-17 22:00:00 10.6 4 Norte 12 Norte 0 -- -- 74
2020-01-17 21:00:00 11 5 Norte 13 Norte 0 -- -- 70
2020-01-17 20:00:00 11.8 6 Nordeste 25 Este 0 -- -- 67
2020-01-17 19:00:00 13.5 10 Oeste 19 Oeste 0 -- -- 53
2020-01-17 18:00:00 13.8 8 Sudoeste 36 Oeste 0 -- -- 56
2020-01-17 17:00:00 15.9 23 Oeste 45 Oeste 0 -- -- 49
2020-01-17 16:00:00 16.8 22 Oeste 42 Oeste 0 -- -- 47
2020-01-17 15:00:00 17.9 18 Sudoeste 34 Oeste 0 -- -- 46
2020-01-17 14:00:00 18 24 Oeste 39 Oeste 0 -- -- 45
2020-01-17 13:00:00 18 18 Oeste 36 Oeste 0 -- -- 47
2020-01-17 12:00:00 16.7 15 Oeste 34 Oeste 0 -- -- 50
2020-01-17 11:00:00 14.8 16 Oeste 27 Oeste 0 -- -- 60
2020-01-17 10:00:00 12.9 13 Oeste 21 Sudoeste 0 -- -- 68
2020-01-17 09:00:00 11.2 2 Sudeste 13 Sudoeste 0 -- -- 76
2020-01-17 08:00:00 10.1 5 Oeste 17 Oeste 0 -- -- 79
2020-01-17 07:00:00 10.5 3 Sudoeste 17 Oeste 0 -- -- 78
2020-01-17 06:00:00 10.7 9 Oeste 17 Sudoeste 0 -- -- 78
2020-01-17 05:00:00 11.6 13 Oeste 23 Oeste 0 -- -- 77
2020-01-17 04:00:00 11.9 12 Oeste 26 Oeste 0 -- -- 80
2020-01-17 03:00:00 11.8 8 Noroeste 19 Oeste 0 -- -- 81
2020-01-17 02:00:00 12.3 6 Oeste 16 Oeste 0 -- -- 81
2020-01-17 01:00:00 12.8 8 Oeste 16 Oeste 0 -- -- 82
2020-01-17 00:00:00 12.4 6 Oeste 13 Oeste 0 -- -- 86
2020-01-16 23:00:00 11.9 8 Oeste 21 Oeste 0 -- -- 87
2020-01-16 22:00:00 11.9 10 Oeste 20 Oeste 0 -- -- 87
2020-01-16 21:00:00 12.3 9 Oeste 19 Oeste 0 -- -- 87
2020-01-16 20:00:00 11.3 6 Oeste 14 Oeste 0 -- -- 86
2020-01-16 19:00:00 11.2 6 Sudoeste 12 Oeste 0 -- -- 86
2020-01-16 18:00:00 11.9 7 Sudoeste 16 Sudoeste 0 -- -- 84
2020-01-16 17:00:00 13.4 9 Sudoeste 21 Sudoeste 0 -- -- 78
2020-01-16 16:00:00 14.3 12 Sudoeste 21 Sudoeste 0 -- -- 71
2020-01-16 15:00:00 14.6 9 Sudoeste 21 Sudoeste 0 -- -- 66
2020-01-16 14:00:00 14.4 10 Sudoeste 18 Sudoeste 0 -- -- 64
2020-01-16 13:00:00 15.2 12 Sudoeste 19 Sudoeste 0 -- -- 62
2020-01-16 12:00:00 14.4 9 Sudoeste 17 Sudoeste 0 -- -- 64
2020-01-16 11:00:00 12.9 6 Sur 11 Sur 0 -- -- 67
2020-01-16 10:00:00 11.9 4 Sudoeste 8 Sudoeste 0 -- -- 71
2020-01-16 09:00:00 10.4 4 Norte 8 Noroeste 0 -- -- 70
2020-01-16 08:00:00 8.1 5 Noroeste 8 Norte 0 -- -- 73
2020-01-16 07:00:00 8.2 5 Noroeste 8 Noroeste 0 -- -- 75
2020-01-16 06:00:00 8 3 Norte 9 Norte 0 -- -- 74
2020-01-16 05:00:00 7.7 2 Noroeste 8 Norte 0 -- -- 75
2020-01-16 04:00:00 8.9 6 Norte 13 Norte 0 -- -- 69
2020-01-16 03:00:00 7.8 4 Norte 8 Norte 0 -- -- 75
2020-01-16 02:00:00 8.3 4 Norte 8 Norte 0 -- -- 71
2020-01-16 01:00:00 9.5 4 Norte 12 Nordeste 0 -- -- 64
2020-01-16 00:00:00 9.6 5 Norte 15 Noroeste 0 -- -- 64
2020-01-15 23:00:00 9.9 7 Noroeste 16 Norte 0 -- -- 65
2020-01-15 22:00:00 9.7 2 Norte 12 Oeste 0 -- -- 67
2020-01-15 21:00:00 10.4 7 Norte 12 Norte 0 -- -- 67
2020-01-15 20:00:00 10.2 4 Noroeste 7 Noroeste 0 -- -- 69
2020-01-15 19:00:00 10.5 5 Noroeste 9 Oeste 0 -- -- 66
2020-01-15 18:00:00 11 4 Oeste 14 Sudoeste 0 -- -- 67
2020-01-15 17:00:00 12.8 9 Sudoeste 26 Sudoeste 0 -- -- 62
2020-01-15 16:00:00 14.2 13 Sudoeste 27 Sudoeste 0 -- -- 53
2020-01-15 15:00:00 14.2 11 Sudoeste 22 Sudoeste 0 -- -- 63
2020-01-15 14:00:00 14.7 9 Sudoeste 19 Sur 0 -- -- 50
2020-01-15 13:00:00 15.9 5 Sudoeste 18 Oeste 0 -- -- 41
2020-01-15 12:00:00 14.1 11 Oeste 21 Oeste 0 -- -- 47
2020-01-15 11:00:00 13 7 Sudoeste 20 Sudoeste 0 -- -- 58
2020-01-15 10:00:00 11.5 2 Sur 13 Oeste 0 -- -- 71
2020-01-15 09:00:00 10.2 4 Oeste 10 Oeste 0 -- -- 72
2020-01-15 08:00:00 9.3 2 Noroeste 15 Oeste 0 -- -- 72
2020-01-15 07:00:00 9.9 6 Oeste 14 Noroeste 0 -- -- 76
2020-01-15 06:00:00 9.7 5 Oeste 11 Oeste 0 -- -- 78
2020-01-15 05:00:00 9.8 6 Oeste 13 Noroeste 0 -- -- 77
2020-01-15 04:00:00 9.7 6 Noroeste 13 Oeste 0 -- -- 76
2020-01-15 03:00:00 9.7 5 Oeste 12 Oeste 0 -- -- 78
2020-01-15 02:00:00 9.8 5 Oeste 10 Oeste 0 -- -- 79
2020-01-15 01:00:00 9.8 6 Noroeste 12 Oeste 0 -- -- 79
2020-01-15 00:00:00 9.8 5 Oeste 12 Oeste 0 -- -- 81
2020-01-14 23:00:00 10 4 Oeste 10 Oeste 0 -- -- 80
2020-01-14 22:00:00 10.3 6 Oeste 15 Oeste 0 -- -- 79
2020-01-14 21:00:00 10.8 6 Oeste 15 Oeste 0 -- -- 77
2020-01-14 20:00:00 10.8 8 Oeste 15 Oeste 0 -- -- 77
2020-01-14 19:00:00 10.7 9 Oeste 18 Oeste 0 -- -- 70
2020-01-14 18:00:00 11.2 10 Oeste 22 Sudoeste 0 -- -- 56
2020-01-14 17:00:00 13 12 Sudoeste 31 Sudoeste 0 -- -- 60
2020-01-14 16:00:00 13.9 13 Sudoeste 27 Sudoeste 0 -- -- 57
2020-01-14 15:00:00 14.8 10 Sudoeste 27 Sudoeste 0 -- -- 55
2020-01-14 14:00:00 15.9 10 Sudoeste 28 Sudoeste 0 -- -- 39
2020-01-14 13:00:00 16.3 12 Oeste 27 Sudoeste 0 -- -- 34
2020-01-14 12:00:00 14.9 8 Sudoeste 17 Sur 0 -- -- 43
2020-01-14 11:00:00 12 9 Este 19 Sudoeste 0 -- -- 50
2020-01-14 10:00:00 9.9 6 Este 10 Este 0 -- -- 54
2020-01-14 09:00:00 8.9 2 Este 6 Norte 0 -- -- 58
2020-01-14 08:00:00 5.6 0 Calma 8 Nordeste 0 -- -- 65
2020-01-14 07:00:00 7.2 0 Calma 9 Sudoeste 0 -- -- 59
2020-01-14 06:00:00 5.7 0 Calma 7 Noroeste 0 -- -- 69
2020-01-14 05:00:00 6.6 3 Norte 9 Norte 0 -- -- 66
2020-01-14 04:00:00 7.4 0 Calma 9 Oeste 0 -- -- 66
2020-01-14 03:00:00 7 0 Calma 9 Oeste 0 -- -- 74
2020-01-14 02:00:00 9.7 6 Oeste 22 Oeste 0 -- -- 72
2020-01-14 01:00:00 10.6 13 Oeste 25 Oeste 0 -- -- 78
2020-01-14 00:00:00 10.6 11 Oeste 30 Oeste 0 -- -- 78
2020-01-13 23:00:00 10.1 10 Oeste 20 Oeste 0 -- -- 65
2020-01-13 22:00:00 9.2 8 Oeste 16 Oeste 0 -- -- 69
2020-01-13 21:00:00 8.5 4 Oeste 9 Oeste 0 -- -- 72
2020-01-13 20:00:00 8.9 3 Oeste 14 Oeste 0 -- -- 71
2020-01-13 19:00:00 9.5 5 Oeste 9 Oeste 0 -- -- 69
2020-01-13 18:00:00 9.7 4 Oeste 10 Sudoeste 0 -- -- 65
2020-01-13 17:00:00 11.7 6 Sudoeste 16 Sudoeste 0 -- -- 62
2020-01-13 16:00:00 13 6 Sudoeste 17 Sudoeste 0 -- -- 52
2020-01-13 15:00:00 12.8 9 Sudoeste 18 Sudoeste 0 -- -- 50
2020-01-13 14:00:00 13 9 Sudoeste 16 Sudoeste 0 -- -- 45
2020-01-13 13:00:00 13.9 6 Sudoeste 11 Sudoeste 0 -- -- 40
2020-01-13 12:00:00 12.3 3 Sudeste 8 Sudeste 0 -- -- 52
2020-01-13 11:00:00 10.2 2 Sur 5 Sur 0 -- -- 55
2020-01-13 10:00:00 8 2 Oeste 8 Noroeste 0 -- -- 59
2020-01-13 09:00:00 7.9 2 Norte 7 Noroeste 0 -- -- 60
2020-01-13 08:00:00 5.2 5 Oeste 9 Oeste 0 -- -- 64
2020-01-13 07:00:00 5.8 4 Noroeste 17 Norte 0 -- -- 59
2020-01-13 06:00:00 5.4 6 Noroeste 11 Oeste 0 -- -- 64
2020-01-13 05:00:00 4 2 Oeste 7 Nordeste 0 -- -- 69
2020-01-13 04:00:00 4.1 2 Norte 7 Norte 0 -- -- 71
2020-01-13 03:00:00 5.1 0 Calma 5 Este 0 -- -- 71
2020-01-13 02:00:00 4.9 3 Noroeste 9 Este 0 -- -- 74
2020-01-13 01:00:00 5.5 3 Nordeste 8 Nordeste 0 -- -- 78
2020-01-13 00:00:00 6.3 3 Nordeste 8 Noroeste 0 -- -- 78
2020-01-12 23:00:00 7.3 3 Este 8 Noroeste 0 -- -- 74
2020-01-12 22:00:00 6.8 3 Noroeste 7 Noroeste 0 -- -- 76
2020-01-12 21:00:00 7.4 3 Norte 7 Noroeste 0 -- -- 76
2020-01-12 20:00:00 8 2 Norte 8 Noroeste 0 -- -- 74
2020-01-12 19:00:00 8.1 2 Noroeste 8 Noroeste 0 -- -- 76
2020-01-12 18:00:00 9.3 5 Noroeste 9 Sur 0 -- -- 74
2020-01-12 17:00:00 12.3 4 Sur 9 Sur 0 -- -- 63
2020-01-12 16:00:00 13.7 3 Sudoeste 10 Sur 0 -- -- 55
2020-01-12 15:00:00 13.2 4 Sur 12 Sudoeste 0 -- -- 62
2020-01-12 14:00:00 14.4 4 Sur 9 Sudoeste 0 -- -- 60
2020-01-12 13:00:00 14 3 Sudeste 12 Sudeste 0 -- -- 60
2020-01-12 12:00:00 12 6 Este 14 Sudeste 0 -- -- 62
2020-01-12 11:00:00 10.9 5 Este 9 Sudeste 0 -- -- 60
2020-01-12 10:00:00 9.8 2 Nordeste 6 Norte 0 -- -- 62
2020-01-12 09:00:00 8.8 4 Norte 12 Norte 0 -- -- 61
2020-01-12 08:00:00 6.1 5 Norte 12 Noroeste 0 -- -- 68
2020-01-12 07:00:00 7 8 Norte 12 Noroeste 0 -- -- 65
2020-01-12 06:00:00 6.8 8 Norte 12 Noroeste 0 -- -- 68
2020-01-12 05:00:00 6.8 7 Norte 12 Noroeste 0 -- -- 71
2020-01-12 04:00:00 5 3 Norte 8 Noroeste 0 -- -- 78
2020-01-12 03:00:00 4.3 3 Norte 8 Noroeste 0 -- -- 79
2020-01-12 02:00:00 5.3 4 Noroeste 11 Norte 0 -- -- 79
2020-01-12 01:00:00 7 5 Norte 9 Noroeste 0 -- -- 74
2020-01-12 00:00:00 6.6 4 Norte 8 Noroeste 0 -- -- 74
2020-01-11 23:00:00 6.6 4 Norte 8 Norte 0 -- -- 74
2020-01-11 22:00:00 7.2 6 Noroeste 9 Noroeste 0 -- -- 76
2020-01-11 21:00:00 7.2 4 Norte 9 Noroeste 0 -- -- 77
2020-01-11 20:00:00 7.9 6 Noroeste 8 Norte 0 -- -- 76
2020-01-11 19:00:00 8 5 Noroeste 8 Noroeste 0 -- -- 75
2020-01-11 18:00:00 8.9 5 Noroeste 8 Noroeste 0 -- -- 71
2020-01-11 17:00:00 11.6 4 Sudoeste 9 Oeste 0 -- -- 61
2020-01-11 16:00:00 12.9 3 Sudoeste 8 Sudoeste 0 -- -- 58
2020-01-11 15:00:00 12.7 3 Sur 10 Sur 0 -- -- 62
2020-01-11 14:00:00 13.2 3 Sur 10 Este 0 -- -- 59
2020-01-11 13:00:00 12.5 5 Sudeste 13 Este 0 -- -- 59
2020-01-11 12:00:00 11.2 8 Este 14 Sudeste 0 -- -- 67
2020-01-11 11:00:00 10.2 6 Este 12 Norte 0 -- -- 70
2020-01-11 10:00:00 8.7 5 Norte 12 Noroeste 0 -- -- 72
2020-01-11 09:00:00 8.8 2 Noroeste 20 Norte 0 -- -- 74
2020-01-11 08:00:00 7.1 5 Norte 11 Noroeste 0 -- -- 76
2020-01-11 07:00:00 6.7 2 Sudeste 11 Este 0 -- -- 79
2020-01-11 06:00:00 7 3 Sudoeste 19 Noroeste 0 -- -- 79
2020-01-11 05:00:00 7.9 9 Norte 19 Noroeste 0 -- -- 81
2020-01-11 04:00:00 8.1 6 Noroeste 12 Noroeste 0 -- -- 81
2020-01-11 03:00:00 7.9 6 Noroeste 10 Norte 0 -- -- 84
2020-01-11 02:00:00 7.8 7 Noroeste 10 Noroeste 0 -- -- 84
2020-01-11 01:00:00 8 5 Norte 9 Noroeste 0 -- -- 83
2020-01-11 00:00:00 8.5 5 Norte 10 Norte 0 -- -- 83
2020-01-10 23:00:00 8.5 5 Noroeste 11 Noroeste 0 -- -- 83
2020-01-10 22:00:00 8.3 2 Nordeste 16 Norte 0 -- -- 79
2020-01-10 21:00:00 8.8 4 Noroeste 15 Norte 0 -- -- 80
2020-01-10 20:00:00 8.8 3 Oeste 9 Oeste 0 -- -- 86
2020-01-10 19:00:00 8.8 6 Noroeste 9 Norte 0 -- -- 88
2020-01-10 18:00:00 9.6 4 Oeste 10 Noroeste 0 -- -- 85
2020-01-10 17:00:00 12.2 2 Sudoeste 14 Sudoeste 0 -- -- 73
2020-01-10 16:00:00 13.1 4 Sudoeste 10 Sudoeste 0 -- -- 75
2020-01-10 15:00:00 12.1 2 Norte 12 Noroeste 0 -- -- 75
2020-01-10 14:00:00 11.4 4 Oeste 8 Noroeste 0 -- -- 84
2020-01-10 13:00:00 10.1 4 Noroeste 13 Norte 0.2 -- -- 85
2020-01-10 12:00:00 9.5 3 Sudeste 15 Oeste 0.2 -- -- 86
2020-01-10 11:00:00 9.2 8 Este 34 Norte 0.8 -- -- 86
2020-01-10 10:00:00 9 13 Norte 31 Norte 2.4 -- -- 91
2020-01-10 09:00:00 9.6 4 Nordeste 16 Nordeste 5.2 -- -- 94
2020-01-10 08:00:00 10 8 Nordeste 15 Este 1.8 -- -- 92
2020-01-10 07:00:00 10.1 6 Nordeste 15 Nordeste 0.6 -- -- 84
2020-01-10 06:00:00 11.2 4 Nordeste 13 Nordeste 0 -- -- 76
2020-01-10 05:00:00 10.6 3 Norte 5 Norte 0 -- -- 85
2020-01-10 04:00:00 10.8 2 Este 11 Oeste 0 -- -- 81
2020-01-10 03:00:00 11 4 Noroeste 8 Noroeste 0 -- -- 80
2020-01-10 02:00:00 10.6 5 Norte 8 Norte 0 -- -- 82
2020-01-10 01:00:00 10.7 2 Oeste 18 Oeste 0 -- -- 79
2020-01-10 00:00:00 11.2 6 Oeste 19 Noroeste 0 -- -- 77
2020-01-09 23:00:00 11.4 9 Oeste 18 Sudoeste 0 -- -- 78
2020-01-09 22:00:00 11.1 7 Oeste 18 Oeste 0 -- -- 77
2020-01-09 21:00:00 10.4 9 Oeste 17 Oeste 0 -- -- 80
2020-01-09 20:00:00 10.6 9 Oeste 17 Oeste 0 -- -- 83
2020-01-09 19:00:00 10.9 8 Oeste 21 Sudoeste 0 -- -- 84
2020-01-09 18:00:00 11.7 11 Sudoeste 23 Sudoeste 0 -- -- 82
2020-01-09 17:00:00 12.9 12 Sudoeste 26 Sudoeste 0 -- -- 78
2020-01-09 16:00:00 13.8 14 Sudoeste 27 Sudoeste 0 -- -- 74
2020-01-09 15:00:00 14.5 14 Sudoeste 26 Sudoeste 0 -- -- 73
2020-01-09 14:00:00 14.7 14 Sudoeste 26 Sudoeste 0 -- -- 72
2020-01-09 13:00:00 15 12 Sudoeste 22 Sudoeste 0 -- -- 68
2020-01-09 12:00:00 14.1 13 Sudoeste 22 Sudoeste 0 -- -- 72
2020-01-09 11:00:00 12.1 8 Sudoeste 14 Sudoeste 0 -- -- 79
2020-01-09 10:00:00 10.7 4 Sudoeste 8 Sudoeste 0 -- -- 86
2020-01-09 09:00:00 9.8 0 Calma 4 Norte 0 -- -- 88
2020-01-09 08:00:00 8 3 Norte 6 Norte 0 -- -- 91
2020-01-09 07:00:00 7.9 3 Norte 6 Noroeste 0 -- -- 90
2020-01-09 06:00:00 7.8 2 Norte 6 Noroeste 0 -- -- 90
2020-01-09 05:00:00 8.8 2 Norte 8 Noroeste 0 -- -- 89
2020-01-09 04:00:00 9 4 Norte 9 Noroeste 0 -- -- 89
2020-01-09 03:00:00 9.7 7 Noroeste 9 Norte 0 -- -- 90
2020-01-09 02:00:00 9 5 Noroeste 7 Noroeste 0 -- -- 92
2020-01-09 01:00:00 9.3 5 Noroeste 8 Noroeste 0 -- -- 91
2020-01-09 00:00:00 9.3 4 Noroeste 6 Noroeste 0 -- -- 90
2020-01-08 23:00:00 9.6 3 Noroeste 8 Noroeste 0 -- -- 89
2020-01-08 22:00:00 10.2 5 Noroeste 8 Noroeste 0 -- -- 88
2020-01-08 21:00:00 10.3 4 Noroeste 7 Noroeste 0 -- -- 83
2020-01-08 20:00:00 10.4 5 Noroeste 8 Noroeste 0 -- -- 82
2020-01-08 19:00:00 11.2 3 Norte 8 Noroeste 0 -- -- 82
2020-01-08 18:00:00 11.9 3 Noroeste 6 Noroeste 0 -- -- 80
2020-01-08 17:00:00 13.7 0 Calma 7 Sudeste 0 -- -- 75
2020-01-08 16:00:00 14.7 3 Sur 9 Sur 0 -- -- 71
2020-01-08 15:00:00 15.5 5 Sur 13 Sur 0 -- -- 64
2020-01-08 14:00:00 15.9 4 Sudeste 14 Sudoeste 0 -- -- 62
2020-01-08 13:00:00 17.6 5 Sudoeste 11 Sudoeste 0 -- -- 60
2020-01-08 12:00:00 16.2 5 Sur 11 Sur 0 -- -- 66
2020-01-08 11:00:00 13.8 3 Sur 7 Sur 0 -- -- 76
2020-01-08 10:00:00 13.1 2 Noroeste 8 Noroeste 0 -- -- 78
2020-01-08 09:00:00 11.6 4 Noroeste 6 Norte 0 -- -- 81
2020-01-08 08:00:00 9.8 4 Norte 7 Norte 0 -- -- 82
2020-01-08 07:00:00 10 4 Norte 8 Noroeste 0 -- -- 82
2020-01-08 06:00:00 9.8 6 Norte 11 Noroeste 0 -- -- 83
2020-01-08 05:00:00 9.6 5 Norte 9 Norte 0 -- -- 79
2020-01-08 04:00:00 9.3 4 Norte 12 Norte 0 -- -- 72
2020-01-08 03:00:00 9.4 4 Norte 12 Nordeste 0 -- -- 71
2020-01-08 02:00:00 8.1 4 Norte 6 Norte 0 -- -- 80
2020-01-08 01:00:00 8.4 0 Calma 4 Norte 0 -- -- 77
2020-01-08 00:00:00 9 3 Oeste 8 Noroeste 0 -- -- 70
2020-01-07 23:00:00 10.5 2 Noroeste 9 Noroeste 0 -- -- 63
2020-01-07 22:00:00 11.1 5 Noroeste 9 Noroeste 0 -- -- 63
2020-01-07 21:00:00 10.2 4 Noroeste 7 Noroeste 0 -- -- 71
2020-01-07 20:00:00 9.7 0 Calma 6 Noroeste 0 -- -- 73
2020-01-07 19:00:00 10.6 3 Norte 5 Norte 0 -- -- 73
2020-01-07 18:00:00 10.8 2 Noroeste 9 Oeste 0 -- -- 75
2020-01-07 17:00:00 13.5 7 Sudoeste 14 Sudoeste 0 -- -- 71
2020-01-07 16:00:00 15.3 7 Sudoeste 12 Sudoeste 0 -- -- 51
2020-01-07 15:00:00 15.5 6 Sur 17 Sudoeste 0 -- -- 52
2020-01-07 14:00:00 16.3 4 Sudeste 16 Sur 0 -- -- 51
2020-01-07 13:00:00 16.4 10 Sudoeste 16 Sudoeste 0 -- -- 50
2020-01-07 12:00:00 14.6 3 Sudoeste 6 Sur 0 -- -- 69
2020-01-07 11:00:00 12.1 2 Sudeste 8 Este 0 -- -- 75
2020-01-07 10:00:00 10.5 2 Sudeste 4 Sudeste 0 -- -- 79
2020-01-07 09:00:00 9.7 2 Noroeste 5 Noroeste 0 -- -- 83
2020-01-07 08:00:00 7.7 0 Calma 5 Norte 0 -- -- 89
2020-01-07 07:00:00 7.5 0 Calma 7 Noroeste 0 -- -- 89
2020-01-07 06:00:00 7.5 0 Calma 3 Oeste 0 -- -- 89
2020-01-07 05:00:00 8.1 3 Noroeste 6 Noroeste 0 -- -- 87
2020-01-07 04:00:00 8.7 3 Norte 13 Noroeste 0 -- -- 84
2020-01-07 03:00:00 8.7 3 Norte 11 Noroeste 0 -- -- 84
2020-01-07 02:00:00 9.3 3 Noroeste 8 Norte 0 -- -- 83
2020-01-07 01:00:00 9 4 Norte 9 Norte 0 -- -- 84
2020-01-07 00:00:00 9.5 5 Norte 10 Norte 0 -- -- 83
2020-01-06 23:00:00 9.5 5 Norte 10 Norte 0 -- -- 83
2020-01-06 22:00:00 9.8 5 Norte 9 Norte 0 -- -- 84
2020-01-06 21:00:00 9.3 4 Noroeste 8 Noroeste 0 -- -- 84
2020-01-06 20:00:00 9.8 4 Noroeste 7 Noroeste 0 -- -- 82
2020-01-06 19:00:00 10.2 4 Noroeste 8 Noroeste 0 -- -- 81
2020-01-06 18:00:00 11 4 Noroeste 7 Noroeste 0 -- -- 78
2020-01-06 17:00:00 12.9 2 Este 8 Sudeste 0 -- -- 71
2020-01-06 16:00:00 13.8 4 Sudeste 13 Este 0 -- -- 69
2020-01-06 15:00:00 14.6 5 Sudeste 14 Sudeste 0 -- -- 67
2020-01-06 14:00:00 14.8 6 Sudeste 11 Sudeste 0 -- -- 63
2020-01-06 13:00:00 15 6 Sudeste 14 Sudeste 0 -- -- 62
2020-01-06 12:00:00 14.5 8 Este 13 Sudeste 0 -- -- 65
2020-01-06 11:00:00 13.4 4 Nordeste 10 Este 0 -- -- 68
2020-01-06 10:00:00 12.2 4 Norte 12 Norte 0 -- -- 68